logo
Rechercher aéroport 
image banner adimage banner adimage banner ad
image banner ad

CL16 - Turner Field/Amphibious Base

Situé à Coronado, United States

ICAO - CL16, IATA -

Données fournies par Airmate  

Information générale

Coordonnées: N32°40'42" W117°9'20"
Élévation : 12 feet MSL.
Variation magnétique : 14° East
Voir autres Aéroports à California

Données opérationnelles

Special qualification required
Heure actuelle UTC:
Heure actuelle locale:
METAR: KNZY 281252Z 00000KT 1/2SM FG VV002 21/20 A2988 RMK AO2 SLP118 T02060200
TAF: TAF AMD KNZY 2809/2907 VRB06KT 3200 BR SCT005 QNH2984INS TEMPO 2809/2815 0400 FG BKN002 FM281600 VRB06KT 9999 SCT006 BKN008 QNH2987INS BECMG 2817/2819 SCT008 TEMPO 2903/2907 BKN008 T21/2813Z T28/2823Z AMD 0940 FS30200
Voir NOTAMs / SUP AIP / TFR affectant cet aéroport [VIEW]
Fréquences de communication: [VIEW]

Pistes:

Coordonnées de l'aéroport

Adresse: Coronado United States

Vue satellite de CL16